Beef Island, British Virgin Islands

7:46 PM AST on July 30, 2016 (GMT -0400)
Beef I International | | Change Station

Elev 13 ft 18.44 °N, 64.54 °W | Updated 46 minutes ago

Mostly Cloudy
Mostly Cloudy
84 °F
Feels Like 94 °F
N
9
Wind Variable Wind from ENE

Today
High -- | Low -- °F
--% Chance of Precip.
Yesterday
High -- | Low -- °F
Precip. -- in
Pressure 30.01 in
Visibility 6.2 miles
Clouds Scattered Clouds 1700 ft
Mostly Cloudy 18000 ft
Heat Index 94 °F
Dew Point 77 °F
Humidity 79%
Rainfall 0.00 in
Snow Depth Not available.
5:55 AM 6:53 PM
Waning Crescent, 10% visible
METAR TUPJ 302300Z 07008KT 9999 SCT017 BKN180 29/25 Q1016
Pressure 30.01 in
Visibility 6.2 miles
Clouds Scattered Clouds 1700 ft
Mostly Cloudy 18000 ft
Heat Index 94 °F
Dew Point 77 °F
Humidity 79%
Rainfall 0.00 in
Snow Depth Not available.
5:55 AM 6:53 PM
Waning Crescent, 10% visible
METAR TUPJ 302300Z 07008KT 9999 SCT017 BKN180 29/25 Q1016

10-Day Weather Forecast

Almanac

Astronomy

Jul. 30, 2016 Rise Set
Actual Time
Civil Twilight
Nautical Twilight
Astronomical Twilight
Moon
Length of Visible Light
Length of Day
Tomorrow will be .
, % of the Moon is Illuminated

Today's Extremes

Country Highs Country Lows

Community

WunderPhotos

Upload Photos

1,928,680 photos uploaded!

WunderBlog® & News

Nearby

Air Quality

  Air Quality AQ Index Pollutant
Not available.

Snow Depth

Station Depth Elevation

Earthquake Activity

City Distance Mag. Time & Date
Minimum magnitude displayed is 2.5.

Coastal Water Temperatures

Place Temperature

Stations

Nearby Weather Stations

Station Location Temp. Windchill Dew Point Humidity Wind Precip. Elev Updated Type